sensor_id;sensor_type;location;lat;lon;timestamp;P1;durP1;ratioP1;P2;durP2;ratioP2
35981;SDS011;22058;0.000;0.000;2024-01-11T00:01:50;6.47;;;2.65;;
35981;SDS011;22058;0.000;0.000;2024-01-11T00:04:16;7.10;;;2.72;;
35981;SDS011;22058;0.000;0.000;2024-01-11T00:06:42;8.52;;;2.83;;
35981;SDS011;22058;0.000;0.000;2024-01-11T00:09:09;4.53;;;2.17;;
35981;SDS011;22058;0.000;0.000;2024-01-11T00:11:35;7.53;;;2.70;;
35981;SDS011;22058;0.000;0.000;2024-01-11T00:14:01;5.70;;;2.47;;
35981;SDS011;22058;0.000;0.000;2024-01-11T00:16:28;4.43;;;2.65;;
35981;SDS011;22058;0.000;0.000;2024-01-11T00:18:54;5.65;;;2.83;;
35981;SDS011;22058;0.000;0.000;2024-01-11T00:21:20;6.53;;;2.90;;
35981;SDS011;22058;0.000;0.000;2024-01-11T00:23:46;2.63;;;2.42;;
35981;SDS011;22058;0.000;0.000;2024-01-11T00:26:12;5.22;;;2.42;;
35981;SDS011;22058;0.000;0.000;2024-01-11T00:28:38;2.58;;;2.35;;
35981;SDS011;22058;0.000;0.000;2024-01-11T00:31:05;4.13;;;3.22;;
35981;SDS011;22058;0.000;0.000;2024-01-11T00:33:31;7.28;;;3.30;;
35981;SDS011;22058;0.000;0.000;2024-01-11T00:35:58;5.57;;;2.45;;
35981;SDS011;22058;0.000;0.000;2024-01-11T00:38:24;6.95;;;2.35;;
35981;SDS011;22058;0.000;0.000;2024-01-11T00:40:50;4.38;;;2.58;;
35981;SDS011;22058;0.000;0.000;2024-01-11T00:43:16;6.20;;;3.40;;
35981;SDS011;22058;0.000;0.000;2024-01-11T00:45:43;4.75;;;3.20;;
35981;SDS011;22058;0.000;0.000;2024-01-11T00:48:09;5.63;;;2.63;;
35981;SDS011;22058;0.000;0.000;2024-01-11T00:50:35;3.53;;;2.40;;
35981;SDS011;22058;0.000;0.000;2024-01-11T00:53:01;5.70;;;2.53;;
35981;SDS011;22058;0.000;0.000;2024-01-11T00:55:28;5.05;;;2.60;;
35981;SDS011;22058;0.000;0.000;2024-01-11T00:57:54;4.88;;;2.65;;
35981;SDS011;22058;0.000;0.000;2024-01-11T01:00:20;4.40;;;2.78;;
35981;SDS011;22058;0.000;0.000;2024-01-11T01:02:46;4.07;;;2.83;;
35981;SDS011;22058;0.000;0.000;2024-01-11T01:05:13;6.47;;;3.15;;
35981;SDS011;22058;0.000;0.000;2024-01-11T01:07:39;7.20;;;2.80;;
35981;SDS011;22058;0.000;0.000;2024-01-11T01:10:05;4.80;;;2.78;;
35981;SDS011;22058;0.000;0.000;2024-01-11T01:12:32;2.88;;;2.08;;
35981;SDS011;22058;0.000;0.000;2024-01-11T01:14:58;2.95;;;2.65;;
35981;SDS011;22058;0.000;0.000;2024-01-11T01:17:24;4.20;;;3.00;;
35981;SDS011;22058;0.000;0.000;2024-01-11T01:19:50;6.18;;;2.30;;
35981;SDS011;22058;0.000;0.000;2024-01-11T01:22:16;3.50;;;2.55;;
35981;SDS011;22058;0.000;0.000;2024-01-11T01:24:43;7.30;;;2.70;;
35981;SDS011;22058;0.000;0.000;2024-01-11T01:27:09;4.30;;;2.00;;
35981;SDS011;22058;0.000;0.000;2024-01-11T01:29:35;3.65;;;2.53;;
35981;SDS011;22058;0.000;0.000;2024-01-11T01:32:01;4.63;;;2.90;;
35981;SDS011;22058;0.000;0.000;2024-01-11T01:34:27;4.15;;;2.60;;
35981;SDS011;22058;0.000;0.000;2024-01-11T01:36:54;4.65;;;3.00;;
35981;SDS011;22058;0.000;0.000;2024-01-11T01:39:20;3.92;;;2.08;;
35981;SDS011;22058;0.000;0.000;2024-01-11T01:41:46;7.95;;;2.55;;
35981;SDS011;22058;0.000;0.000;2024-01-11T01:44:12;6.72;;;2.95;;
35981;SDS011;22058;0.000;0.000;2024-01-11T01:46:38;4.60;;;2.80;;
35981;SDS011;22058;0.000;0.000;2024-01-11T01:49:05;3.63;;;2.63;;
35981;SDS011;22058;0.000;0.000;2024-01-11T01:51:31;2.65;;;2.45;;
35981;SDS011;22058;0.000;0.000;2024-01-11T01:53:58;3.13;;;2.90;;
35981;SDS011;22058;0.000;0.000;2024-01-11T01:56:24;5.93;;;2.55;;
35981;SDS011;22058;0.000;0.000;2024-01-11T01:58:51;7.45;;;2.92;;
35981;SDS011;22058;0.000;0.000;2024-01-11T02:01:18;4.45;;;2.38;;
35981;SDS011;22058;0.000;0.000;2024-01-11T02:03:45;4.97;;;3.15;;
35981;SDS011;22058;0.000;0.000;2024-01-11T02:06:11;5.15;;;2.75;;
35981;SDS011;22058;0.000;0.000;2024-01-11T02:08:40;4.22;;;2.67;;
35981;SDS011;22058;0.000;0.000;2024-01-11T02:11:07;5.65;;;3.47;;
35981;SDS011;22058;0.000;0.000;2024-01-11T02:13:33;4.43;;;2.20;;
35981;SDS011;22058;0.000;0.000;2024-01-11T02:16:00;7.70;;;5.00;;
35981;SDS011;22058;0.000;0.000;2024-01-11T02:18:26;4.40;;;3.55;;
35981;SDS011;22058;0.000;0.000;2024-01-11T02:20:52;3.63;;;2.90;;
35981;SDS011;22058;0.000;0.000;2024-01-11T02:23:19;3.60;;;2.50;;
35981;SDS011;22058;0.000;0.000;2024-01-11T02:25:46;3.20;;;2.30;;
35981;SDS011;22058;0.000;0.000;2024-01-11T02:28:12;3.25;;;2.55;;
35981;SDS011;22058;0.000;0.000;2024-01-11T02:30:38;7.57;;;3.25;;
35981;SDS011;22058;0.000;0.000;2024-01-11T02:33:04;4.85;;;2.63;;
35981;SDS011;22058;0.000;0.000;2024-01-11T02:35:31;3.08;;;2.50;;
35981;SDS011;22058;0.000;0.000;2024-01-11T02:37:58;4.90;;;2.60;;
35981;SDS011;22058;0.000;0.000;2024-01-11T02:40:25;4.13;;;2.92;;
35981;SDS011;22058;0.000;0.000;2024-01-11T02:42:52;4.07;;;2.63;;
35981;SDS011;22058;0.000;0.000;2024-01-11T02:45:18;4.88;;;3.00;;
35981;SDS011;22058;0.000;0.000;2024-01-11T02:47:44;2.70;;;2.50;;
35981;SDS011;22058;0.000;0.000;2024-01-11T02:50:10;3.88;;;3.10;;
35981;SDS011;22058;0.000;0.000;2024-01-11T02:52:39;3.05;;;2.85;;
35981;SDS011;22058;0.000;0.000;2024-01-11T02:55:05;3.92;;;2.63;;
35981;SDS011;22058;0.000;0.000;2024-01-11T02:57:32;4.38;;;2.50;;
35981;SDS011;22058;0.000;0.000;2024-01-11T02:59:58;3.80;;;2.63;;
35981;SDS011;22058;0.000;0.000;2024-01-11T03:02:24;3.50;;;3.20;;
35981;SDS011;22058;0.000;0.000;2024-01-11T03:04:50;2.85;;;2.63;;
35981;SDS011;22058;0.000;0.000;2024-01-11T03:07:16;2.78;;;2.38;;
35981;SDS011;22058;0.000;0.000;2024-01-11T03:09:43;6.90;;;2.75;;
35981;SDS011;22058;0.000;0.000;2024-01-11T03:12:09;4.65;;;2.67;;
35981;SDS011;22058;0.000;0.000;2024-01-11T03:14:35;3.45;;;3.10;;
35981;SDS011;22058;0.000;0.000;2024-01-11T03:17:01;8.48;;;3.75;;
35981;SDS011;22058;0.000;0.000;2024-01-11T03:19:27;2.90;;;2.55;;
35981;SDS011;22058;0.000;0.000;2024-01-11T03:21:53;3.13;;;2.83;;
35981;SDS011;22058;0.000;0.000;2024-01-11T03:24:19;2.65;;;2.45;;
35981;SDS011;22058;0.000;0.000;2024-01-11T03:26:47;3.53;;;2.63;;
35981;SDS011;22058;0.000;0.000;2024-01-11T03:29:13;2.92;;;2.63;;
35981;SDS011;22058;0.000;0.000;2024-01-11T03:31:39;4.40;;;2.78;;
35981;SDS011;22058;0.000;0.000;2024-01-11T03:34:07;4.43;;;2.72;;
35981;SDS011;22058;0.000;0.000;2024-01-11T03:36:34;4.82;;;2.63;;
35981;SDS011;22058;0.000;0.000;2024-01-11T03:39:00;3.03;;;2.08;;
35981;SDS011;22058;0.000;0.000;2024-01-11T03:41:26;4.07;;;3.17;;
35981;SDS011;22058;0.000;0.000;2024-01-11T03:43:52;4.82;;;3.42;;
35981;SDS011;22058;0.000;0.000;2024-01-11T03:46:18;3.53;;;2.85;;
35981;SDS011;22058;0.000;0.000;2024-01-11T03:48:45;2.72;;;2.25;;
35981;SDS011;22058;0.000;0.000;2024-01-11T03:51:11;6.18;;;2.90;;
35981;SDS011;22058;0.000;0.000;2024-01-11T03:53:37;3.10;;;2.08;;
35981;SDS011;22058;0.000;0.000;2024-01-11T03:56:04;4.18;;;2.20;;
35981;SDS011;22058;0.000;0.000;2024-01-11T03:58:30;4.63;;;2.80;;
35981;SDS011;22058;0.000;0.000;2024-01-11T04:00:56;2.55;;;2.35;;
35981;SDS011;22058;0.000;0.000;2024-01-11T04:03:22;6.25;;;3.10;;
35981;SDS011;22058;0.000;0.000;2024-01-11T04:05:48;2.90;;;2.60;;
35981;SDS011;22058;0.000;0.000;2024-01-11T04:08:14;3.17;;;2.72;;
35981;SDS011;22058;0.000;0.000;2024-01-11T04:10:40;2.67;;;2.45;;
35981;SDS011;22058;0.000;0.000;2024-01-11T04:13:07;7.55;;;3.15;;
35981;SDS011;22058;0.000;0.000;2024-01-11T04:15:33;3.08;;;2.80;;
35981;SDS011;22058;0.000;0.000;2024-01-11T04:17:59;3.85;;;3.05;;
35981;SDS011;22058;0.000;0.000;2024-01-11T04:20:25;2.70;;;2.47;;
35981;SDS011;22058;0.000;0.000;2024-01-11T04:22:51;3.55;;;3.05;;
35981;SDS011;22058;0.000;0.000;2024-01-11T04:25:18;3.03;;;2.63;;
35981;SDS011;22058;0.000;0.000;2024-01-11T04:27:44;3.42;;;2.45;;
35981;SDS011;22058;0.000;0.000;2024-01-11T04:30:10;2.95;;;2.75;;
35981;SDS011;22058;0.000;0.000;2024-01-11T04:32:36;3.67;;;2.20;;
35981;SDS011;22058;0.000;0.000;2024-01-11T04:35:02;3.55;;;2.78;;
35981;SDS011;22058;0.000;0.000;2024-01-11T04:37:29;2.38;;;2.15;;
35981;SDS011;22058;0.000;0.000;2024-01-11T04:39:55;3.55;;;3.25;;
35981;SDS011;22058;0.000;0.000;2024-01-11T04:42:25;4.85;;;2.78;;
35981;SDS011;22058;0.000;0.000;2024-01-11T04:44:52;2.95;;;2.67;;
35981;SDS011;22058;0.000;0.000;2024-01-11T04:47:18;5.28;;;2.95;;
35981;SDS011;22058;0.000;0.000;2024-01-11T04:49:44;3.17;;;2.85;;
35981;SDS011;22058;0.000;0.000;2024-01-11T04:52:10;2.97;;;2.67;;
35981;SDS011;22058;0.000;0.000;2024-01-11T04:54:36;3.00;;;2.50;;
35981;SDS011;22058;0.000;0.000;2024-01-11T04:57:03;2.92;;;2.50;;
35981;SDS011;22058;0.000;0.000;2024-01-11T04:59:30;4.53;;;2.42;;
35981;SDS011;22058;0.000;0.000;2024-01-11T05:01:56;3.00;;;2.70;;
35981;SDS011;22058;0.000;0.000;2024-01-11T05:04:22;2.95;;;2.63;;
35981;SDS011;22058;0.000;0.000;2024-01-11T05:06:48;3.03;;;2.50;;
35981;SDS011;22058;0.000;0.000;2024-01-11T05:09:16;3.63;;;2.95;;
35981;SDS011;22058;0.000;0.000;2024-01-11T05:11:43;3.53;;;2.92;;
35981;SDS011;22058;0.000;0.000;2024-01-11T05:14:09;2.75;;;2.55;;
35981;SDS011;22058;0.000;0.000;2024-01-11T05:16:35;3.13;;;2.83;;
35981;SDS011;22058;0.000;0.000;2024-01-11T05:19:01;4.28;;;3.40;;
35981;SDS011;22058;0.000;0.000;2024-01-11T05:21:27;4.25;;;3.22;;
35981;SDS011;22058;0.000;0.000;2024-01-11T05:23:53;6.60;;;2.90;;
35981;SDS011;22058;0.000;0.000;2024-01-11T05:26:20;4.60;;;3.47;;
35981;SDS011;22058;0.000;0.000;2024-01-11T05:28:46;7.90;;;3.65;;
35981;SDS011;22058;0.000;0.000;2024-01-11T05:31:13;9.00;;;3.40;;
35981;SDS011;22058;0.000;0.000;2024-01-11T05:33:42;23.88;;;5.30;;
35981;SDS011;22058;0.000;0.000;2024-01-11T05:36:08;13.18;;;3.63;;
35981;SDS011;22058;0.000;0.000;2024-01-11T05:38:35;6.45;;;3.20;;
35981;SDS011;22058;0.000;0.000;2024-01-11T05:41:01;5.05;;;3.65;;
35981;SDS011;22058;0.000;0.000;2024-01-11T05:43:27;13.68;;;5.00;;
35981;SDS011;22058;0.000;0.000;2024-01-11T05:45:53;6.95;;;3.88;;
35981;SDS011;22058;0.000;0.000;2024-01-11T05:48:19;6.18;;;3.58;;
35981;SDS011;22058;0.000;0.000;2024-01-11T05:50:46;9.23;;;3.63;;
35981;SDS011;22058;0.000;0.000;2024-01-11T05:53:12;6.88;;;3.88;;
35981;SDS011;22058;0.000;0.000;2024-01-11T05:55:41;9.25;;;3.42;;
35981;SDS011;22058;0.000;0.000;2024-01-11T05:58:07;8.57;;;3.42;;
35981;SDS011;22058;0.000;0.000;2024-01-11T06:03:17;8.02;;;3.83;;
35981;SDS011;22058;0.000;0.000;2024-01-11T06:05:43;10.90;;;3.75;;
35981;SDS011;22058;0.000;0.000;2024-01-11T06:08:09;5.70;;;3.63;;
35981;SDS011;22058;0.000;0.000;2024-01-11T06:10:35;6.28;;;3.47;;
35981;SDS011;22058;0.000;0.000;2024-01-11T06:13:02;6.30;;;2.92;;
35981;SDS011;22058;0.000;0.000;2024-01-11T06:15:28;8.18;;;3.20;;
35981;SDS011;22058;0.000;0.000;2024-01-11T06:17:54;4.20;;;3.10;;
35981;SDS011;22058;0.000;0.000;2024-01-11T06:20:20;9.07;;;3.17;;
35981;SDS011;22058;0.000;0.000;2024-01-11T06:22:47;4.95;;;2.78;;
35981;SDS011;22058;0.000;0.000;2024-01-11T06:25:13;4.55;;;3.17;;
35981;SDS011;22058;0.000;0.000;2024-01-11T06:27:41;8.02;;;2.50;;
35981;SDS011;22058;0.000;0.000;2024-01-11T06:30:08;4.28;;;3.80;;
35981;SDS011;22058;0.000;0.000;2024-01-11T06:32:35;3.05;;;2.83;;
35981;SDS011;22058;0.000;0.000;2024-01-11T06:35:01;5.68;;;2.83;;
35981;SDS011;22058;0.000;0.000;2024-01-11T06:37:28;9.63;;;3.15;;
35981;SDS011;22058;0.000;0.000;2024-01-11T06:39:54;11.98;;;2.58;;
35981;SDS011;22058;0.000;0.000;2024-01-11T06:42:20;11.23;;;3.42;;
35981;SDS011;22058;0.000;0.000;2024-01-11T06:44:46;4.20;;;2.83;;
35981;SDS011;22058;0.000;0.000;2024-01-11T06:47:12;4.15;;;2.95;;
35981;SDS011;22058;0.000;0.000;2024-01-11T06:49:39;5.30;;;3.63;;
35981;SDS011;22058;0.000;0.000;2024-01-11T06:52:05;5.45;;;3.75;;
35981;SDS011;22058;0.000;0.000;2024-01-11T06:54:31;6.40;;;3.45;;
35981;SDS011;22058;0.000;0.000;2024-01-11T06:56:58;5.40;;;3.60;;
35981;SDS011;22058;0.000;0.000;2024-01-11T06:59:24;3.15;;;2.85;;
35981;SDS011;22058;0.000;0.000;2024-01-11T07:01:50;4.70;;;3.45;;
35981;SDS011;22058;0.000;0.000;2024-01-11T07:04:16;6.60;;;3.67;;
35981;SDS011;22058;0.000;0.000;2024-01-11T07:06:42;4.03;;;3.17;;
35981;SDS011;22058;0.000;0.000;2024-01-11T07:09:08;9.43;;;3.20;;
35981;SDS011;22058;0.000;0.000;2024-01-11T07:11:36;6.85;;;3.20;;
35981;SDS011;22058;0.000;0.000;2024-01-11T07:14:02;18.67;;;5.38;;
35981;SDS011;22058;0.000;0.000;2024-01-11T07:16:29;8.43;;;4.10;;
35981;SDS011;22058;0.000;0.000;2024-01-11T07:18:56;7.03;;;4.00;;
35981;SDS011;22058;0.000;0.000;2024-01-11T07:21:23;10.68;;;4.13;;
35981;SDS011;22058;0.000;0.000;2024-01-11T07:23:55;9.77;;;4.43;;
35981;SDS011;22058;0.000;0.000;2024-01-11T07:26:22;4.93;;;3.55;;
35981;SDS011;22058;0.000;0.000;2024-01-11T07:28:49;9.85;;;5.20;;
35981;SDS011;22058;0.000;0.000;2024-01-11T07:31:15;4.13;;;3.72;;
35981;SDS011;22058;0.000;0.000;2024-01-11T07:33:41;6.03;;;5.07;;
35981;SDS011;22058;0.000;0.000;2024-01-11T07:36:07;4.45;;;3.80;;
35981;SDS011;22058;0.000;0.000;2024-01-11T07:38:34;4.95;;;3.13;;
35981;SDS011;22058;0.000;0.000;2024-01-11T07:41:00;4.28;;;3.20;;
35981;SDS011;22058;0.000;0.000;2024-01-11T07:43:27;5.28;;;3.75;;
35981;SDS011;22058;0.000;0.000;2024-01-11T07:45:54;5.35;;;3.00;;
35981;SDS011;22058;0.000;0.000;2024-01-11T07:48:23;6.20;;;4.07;;
35981;SDS011;22058;0.000;0.000;2024-01-11T07:50:49;5.30;;;3.35;;
35981;SDS011;22058;0.000;0.000;2024-01-11T07:53:15;7.30;;;3.60;;
35981;SDS011;22058;0.000;0.000;2024-01-11T07:55:42;4.65;;;3.53;;
35981;SDS011;22058;0.000;0.000;2024-01-11T07:58:08;6.20;;;3.58;;
35981;SDS011;22058;0.000;0.000;2024-01-11T08:00:37;4.20;;;3.15;;
35981;SDS011;22058;0.000;0.000;2024-01-11T08:03:03;10.38;;;4.25;;
35981;SDS011;22058;0.000;0.000;2024-01-11T08:05:29;7.30;;;3.63;;
35981;SDS011;22058;0.000;0.000;2024-01-11T08:07:55;11.63;;;3.53;;
35981;SDS011;22058;0.000;0.000;2024-01-11T08:10:22;8.10;;;3.90;;
35981;SDS011;22058;0.000;0.000;2024-01-11T08:12:48;6.43;;;3.38;;
35981;SDS011;22058;0.000;0.000;2024-01-11T08:15:14;9.05;;;3.83;;
35981;SDS011;22058;0.000;0.000;2024-01-11T08:17:44;8.73;;;4.07;;
35981;SDS011;22058;0.000;0.000;2024-01-11T08:20:11;10.05;;;4.90;;
35981;SDS011;22058;0.000;0.000;2024-01-11T08:22:40;5.53;;;3.70;;
35981;SDS011;22058;0.000;0.000;2024-01-11T08:25:08;5.80;;;3.42;;
35981;SDS011;22058;0.000;0.000;2024-01-11T08:27:34;8.55;;;3.97;;
35981;SDS011;22058;0.000;0.000;2024-01-11T08:30:01;5.93;;;3.63;;
35981;SDS011;22058;0.000;0.000;2024-01-11T08:32:27;7.88;;;4.03;;
35981;SDS011;22058;0.000;0.000;2024-01-11T08:34:54;5.60;;;3.53;;
35981;SDS011;22058;0.000;0.000;2024-01-11T08:37:20;8.10;;;3.22;;
35981;SDS011;22058;0.000;0.000;2024-01-11T08:39:46;11.25;;;3.53;;
35981;SDS011;22058;0.000;0.000;2024-01-11T08:42:13;8.32;;;4.20;;
35981;SDS011;22058;0.000;0.000;2024-01-11T08:44:41;6.63;;;4.00;;
35981;SDS011;22058;0.000;0.000;2024-01-11T08:47:07;5.43;;;3.42;;
35981;SDS011;22058;0.000;0.000;2024-01-11T08:49:38;10.70;;;3.92;;
35981;SDS011;22058;0.000;0.000;2024-01-11T08:52:05;12.52;;;3.63;;
35981;SDS011;22058;0.000;0.000;2024-01-11T08:54:31;13.45;;;4.25;;
35981;SDS011;22058;0.000;0.000;2024-01-11T08:57:00;9.45;;;4.00;;
35981;SDS011;22058;0.000;0.000;2024-01-11T08:59:26;14.00;;;4.53;;
35981;SDS011;22058;0.000;0.000;2024-01-11T09:01:53;16.58;;;3.60;;
35981;SDS011;22058;0.000;0.000;2024-01-11T09:04:19;7.30;;;4.50;;
35981;SDS011;22058;0.000;0.000;2024-01-11T09:06:45;7.35;;;4.00;;
35981;SDS011;22058;0.000;0.000;2024-01-11T09:09:11;8.65;;;4.25;;
35981;SDS011;22058;0.000;0.000;2024-01-11T09:11:41;7.15;;;3.55;;
35981;SDS011;22058;0.000;0.000;2024-01-11T09:14:07;5.50;;;4.13;;
35981;SDS011;22058;0.000;0.000;2024-01-11T09:16:36;7.72;;;3.17;;
35981;SDS011;22058;0.000;0.000;2024-01-11T09:19:02;7.82;;;3.53;;
35981;SDS011;22058;0.000;0.000;2024-01-11T09:21:28;4.70;;;3.47;;
35981;SDS011;22058;0.000;0.000;2024-01-11T09:23:55;7.95;;;3.38;;
35981;SDS011;22058;0.000;0.000;2024-01-11T09:26:21;10.82;;;3.83;;
35981;SDS011;22058;0.000;0.000;2024-01-11T09:28:47;9.20;;;2.92;;
35981;SDS011;22058;0.000;0.000;2024-01-11T09:31:14;14.00;;;3.90;;
35981;SDS011;22058;0.000;0.000;2024-01-11T09:33:40;8.10;;;3.63;;
35981;SDS011;22058;0.000;0.000;2024-01-11T09:36:10;15.35;;;4.95;;
35981;SDS011;22058;0.000;0.000;2024-01-11T09:38:36;37.25;;;5.82;;
35981;SDS011;22058;0.000;0.000;2024-01-11T09:41:11;19.98;;;4.63;;
35981;SDS011;22058;0.000;0.000;2024-01-11T09:43:38;20.92;;;6.20;;
35981;SDS011;22058;0.000;0.000;2024-01-11T09:46:07;13.38;;;4.50;;
35981;SDS011;22058;0.000;0.000;2024-01-11T09:48:34;25.25;;;4.75;;
35981;SDS011;22058;0.000;0.000;2024-01-11T09:51:04;20.77;;;4.50;;
35981;SDS011;22058;0.000;0.000;2024-01-11T09:53:32;29.73;;;5.65;;
35981;SDS011;22058;0.000;0.000;2024-01-11T09:55:58;20.90;;;4.80;;
35981;SDS011;22058;0.000;0.000;2024-01-11T09:58:25;10.35;;;4.18;;
35981;SDS011;22058;0.000;0.000;2024-01-11T10:00:54;15.70;;;3.78;;
35981;SDS011;22058;0.000;0.000;2024-01-11T10:03:22;14.23;;;5.18;;
35981;SDS011;22058;0.000;0.000;2024-01-11T10:05:49;16.02;;;4.18;;
35981;SDS011;22058;0.000;0.000;2024-01-11T10:08:18;20.42;;;4.20;;
35981;SDS011;22058;0.000;0.000;2024-01-11T10:10:45;21.10;;;5.78;;
35981;SDS011;22058;0.000;0.000;2024-01-11T10:13:11;10.60;;;5.47;;
35981;SDS011;22058;0.000;0.000;2024-01-11T10:15:37;9.75;;;4.72;;
35981;SDS011;22058;0.000;0.000;2024-01-11T10:18:03;14.73;;;4.47;;
35981;SDS011;22058;0.000;0.000;2024-01-11T10:20:29;10.63;;;5.63;;
35981;SDS011;22058;0.000;0.000;2024-01-11T10:22:57;10.27;;;4.55;;
35981;SDS011;22058;0.000;0.000;2024-01-11T10:25:25;10.75;;;5.10;;
35981;SDS011;22058;0.000;0.000;2024-01-11T10:27:52;16.98;;;4.80;;
35981;SDS011;22058;0.000;0.000;2024-01-11T10:30:18;12.85;;;4.10;;
35981;SDS011;22058;0.000;0.000;2024-01-11T10:32:45;8.18;;;4.22;;
35981;SDS011;22058;0.000;0.000;2024-01-11T10:35:12;16.25;;;4.95;;
35981;SDS011;22058;0.000;0.000;2024-01-11T10:37:38;20.13;;;4.60;;
35981;SDS011;22058;0.000;0.000;2024-01-11T10:40:06;15.25;;;4.57;;
35981;SDS011;22058;0.000;0.000;2024-01-11T10:45:06;9.10;;;4.45;;
35981;SDS011;22058;0.000;0.000;2024-01-11T10:47:34;23.05;;;4.72;;
35981;SDS011;22058;0.000;0.000;2024-01-11T10:50:01;13.70;;;4.25;;
35981;SDS011;22058;0.000;0.000;2024-01-11T10:52:33;13.02;;;4.50;;
35981;SDS011;22058;0.000;0.000;2024-01-11T10:55:02;12.13;;;4.10;;
35981;SDS011;22058;0.000;0.000;2024-01-11T10:57:29;10.70;;;3.63;;
35981;SDS011;22058;0.000;0.000;2024-01-11T10:59:55;15.32;;;4.68;;
35981;SDS011;22058;0.000;0.000;2024-01-11T11:02:22;8.93;;;3.13;;
35981;SDS011;22058;0.000;0.000;2024-01-11T11:04:48;7.25;;;3.63;;
35981;SDS011;22058;0.000;0.000;2024-01-11T11:07:18;10.48;;;4.18;;
35981;SDS011;22058;0.000;0.000;2024-01-11T11:09:44;7.05;;;4.70;;
35981;SDS011;22058;0.000;0.000;2024-01-11T11:12:10;10.68;;;3.53;;
35981;SDS011;22058;0.000;0.000;2024-01-11T11:14:38;6.85;;;3.90;;
35981;SDS011;22058;0.000;0.000;2024-01-11T11:17:04;9.77;;;3.60;;
35981;SDS011;22058;0.000;0.000;2024-01-11T11:19:31;7.82;;;3.80;;
35981;SDS011;22058;0.000;0.000;2024-01-11T11:21:57;12.32;;;5.40;;
35981;SDS011;22058;0.000;0.000;2024-01-11T11:24:23;27.77;;;7.20;;
35981;SDS011;22058;0.000;0.000;2024-01-11T11:26:49;16.30;;;4.57;;
35981;SDS011;22058;0.000;0.000;2024-01-11T11:29:15;13.90;;;4.95;;
35981;SDS011;22058;0.000;0.000;2024-01-11T11:31:43;12.27;;;4.15;;
35981;SDS011;22058;0.000;0.000;2024-01-11T11:34:19;13.43;;;4.65;;
35981;SDS011;22058;0.000;0.000;2024-01-11T11:36:48;12.88;;;4.80;;
35981;SDS011;22058;0.000;0.000;2024-01-11T11:39:20;7.13;;;3.65;;
35981;SDS011;22058;0.000;0.000;2024-01-11T11:41:47;7.40;;;3.55;;
35981;SDS011;22058;0.000;0.000;2024-01-11T11:44:14;9.73;;;4.13;;
35981;SDS011;22058;0.000;0.000;2024-01-11T11:46:42;7.50;;;3.88;;
35981;SDS011;22058;0.000;0.000;2024-01-11T11:49:10;9.10;;;4.45;;
35981;SDS011;22058;0.000;0.000;2024-01-11T11:51:38;9.90;;;3.58;;
35981;SDS011;22058;0.000;0.000;2024-01-11T11:54:06;10.32;;;3.78;;
35981;SDS011;22058;0.000;0.000;2024-01-11T11:56:34;7.10;;;3.97;;
35981;SDS011;22058;0.000;0.000;2024-01-11T11:59:02;11.30;;;3.33;;
35981;SDS011;22058;0.000;0.000;2024-01-11T12:01:28;10.75;;;4.38;;
35981;SDS011;22058;0.000;0.000;2024-01-11T12:03:54;8.55;;;4.25;;
35981;SDS011;22058;0.000;0.000;2024-01-11T12:06:21;22.52;;;4.97;;
35981;SDS011;22058;0.000;0.000;2024-01-11T12:08:53;21.20;;;4.50;;
35981;SDS011;22058;0.000;0.000;2024-01-11T12:11:20;22.17;;;4.93;;
35981;SDS011;22058;0.000;0.000;2024-01-11T12:13:49;19.52;;;4.80;;
35981;SDS011;22058;0.000;0.000;2024-01-11T12:18:43;16.70;;;5.13;;
35981;SDS011;22058;0.000;0.000;2024-01-11T12:21:09;6.22;;;3.70;;
35981;SDS011;22058;0.000;0.000;2024-01-11T12:23:36;8.80;;;4.43;;
35981;SDS011;22058;0.000;0.000;2024-01-11T12:26:04;17.58;;;4.10;;
35981;SDS011;22058;0.000;0.000;2024-01-11T12:28:36;16.08;;;5.10;;
35981;SDS011;22058;0.000;0.000;2024-01-11T12:31:03;17.45;;;4.63;;
35981;SDS011;22058;0.000;0.000;2024-01-11T12:33:29;12.32;;;4.00;;
35981;SDS011;22058;0.000;0.000;2024-01-11T12:35:55;10.02;;;3.28;;
35981;SDS011;22058;0.000;0.000;2024-01-11T12:38:23;13.82;;;3.63;;
35981;SDS011;22058;0.000;0.000;2024-01-11T12:40:49;11.15;;;3.95;;
35981;SDS011;22058;0.000;0.000;2024-01-11T12:43:15;13.52;;;4.32;;
35981;SDS011;22058;0.000;0.000;2024-01-11T12:45:49;14.30;;;3.72;;
35981;SDS011;22058;0.000;0.000;2024-01-11T12:48:15;9.73;;;3.85;;
35981;SDS011;22058;0.000;0.000;2024-01-11T12:50:43;10.30;;;4.00;;
35981;SDS011;22058;0.000;0.000;2024-01-11T12:53:10;6.70;;;3.45;;
35981;SDS011;22058;0.000;0.000;2024-01-11T12:55:43;6.35;;;3.80;;
35981;SDS011;22058;0.000;0.000;2024-01-11T12:58:09;8.93;;;4.93;;
35981;SDS011;22058;0.000;0.000;2024-01-11T13:00:35;9.15;;;3.67;;
35981;SDS011;22058;0.000;0.000;2024-01-11T13:03:02;10.73;;;3.42;;
35981;SDS011;22058;0.000;0.000;2024-01-11T13:05:28;8.45;;;3.55;;
35981;SDS011;22058;0.000;0.000;2024-01-11T13:10:27;23.17;;;4.25;;
35981;SDS011;22058;0.000;0.000;2024-01-11T13:12:53;13.18;;;4.47;;
35981;SDS011;22058;0.000;0.000;2024-01-11T13:15:20;9.15;;;3.80;;
35981;SDS011;22058;0.000;0.000;2024-01-11T13:17:47;11.70;;;4.28;;
35981;SDS011;22058;0.000;0.000;2024-01-11T13:20:13;10.77;;;4.10;;
35981;SDS011;22058;0.000;0.000;2024-01-11T13:22:40;12.85;;;3.83;;
35981;SDS011;22058;0.000;0.000;2024-01-11T13:25:07;4.35;;;3.60;;
35981;SDS011;22058;0.000;0.000;2024-01-11T13:27:34;8.82;;;4.78;;
35981;SDS011;22058;0.000;0.000;2024-01-11T13:30:00;9.32;;;4.18;;
35981;SDS011;22058;0.000;0.000;2024-01-11T13:32:26;6.78;;;4.30;;
35981;SDS011;22058;0.000;0.000;2024-01-11T13:34:53;9.88;;;4.15;;
35981;SDS011;22058;0.000;0.000;2024-01-11T13:37:19;9.02;;;3.65;;
35981;SDS011;22058;0.000;0.000;2024-01-11T13:39:46;12.73;;;4.43;;
35981;SDS011;22058;0.000;0.000;2024-01-11T13:42:13;15.80;;;4.45;;
35981;SDS011;22058;0.000;0.000;2024-01-11T13:44:40;12.10;;;4.32;;
35981;SDS011;22058;0.000;0.000;2024-01-11T13:47:07;16.73;;;4.43;;
35981;SDS011;22058;0.000;0.000;2024-01-11T13:49:33;11.98;;;4.55;;
35981;SDS011;22058;0.000;0.000;2024-01-11T13:51:59;8.95;;;3.88;;
35981;SDS011;22058;0.000;0.000;2024-01-11T13:54:26;7.22;;;3.72;;
35981;SDS011;22058;0.000;0.000;2024-01-11T13:56:52;15.63;;;4.22;;
35981;SDS011;22058;0.000;0.000;2024-01-11T13:59:18;11.05;;;4.30;;
35981;SDS011;22058;0.000;0.000;2024-01-11T14:01:45;12.50;;;4.75;;
35981;SDS011;22058;0.000;0.000;2024-01-11T14:04:11;9.68;;;4.40;;
35981;SDS011;22058;0.000;0.000;2024-01-11T14:06:37;6.57;;;3.63;;
35981;SDS011;22058;0.000;0.000;2024-01-11T14:09:03;7.28;;;3.20;;
35981;SDS011;22058;0.000;0.000;2024-01-11T14:11:32;11.57;;;4.93;;
35981;SDS011;22058;0.000;0.000;2024-01-11T14:14:02;9.73;;;4.40;;
35981;SDS011;22058;0.000;0.000;2024-01-11T14:16:29;8.52;;;3.50;;
35981;SDS011;22058;0.000;0.000;2024-01-11T14:18:55;10.27;;;3.45;;
35981;SDS011;22058;0.000;0.000;2024-01-11T14:21:21;8.13;;;3.53;;
35981;SDS011;22058;0.000;0.000;2024-01-11T14:23:47;10.98;;;5.18;;
35981;SDS011;22058;0.000;0.000;2024-01-11T14:26:14;5.30;;;2.90;;
35981;SDS011;22058;0.000;0.000;2024-01-11T14:28:40;8.07;;;3.63;;
35981;SDS011;22058;0.000;0.000;2024-01-11T14:31:07;4.97;;;3.10;;
35981;SDS011;22058;0.000;0.000;2024-01-11T14:33:34;9.43;;;3.40;;
35981;SDS011;22058;0.000;0.000;2024-01-11T14:36:01;7.50;;;3.35;;
35981;SDS011;22058;0.000;0.000;2024-01-11T14:38:27;8.10;;;3.72;;
35981;SDS011;22058;0.000;0.000;2024-01-11T14:40:53;10.77;;;3.85;;
35981;SDS011;22058;0.000;0.000;2024-01-11T14:43:19;9.77;;;3.30;;
35981;SDS011;22058;0.000;0.000;2024-01-11T14:45:46;15.18;;;4.38;;
35981;SDS011;22058;0.000;0.000;2024-01-11T14:48:13;10.18;;;3.63;;
35981;SDS011;22058;0.000;0.000;2024-01-11T14:50:39;13.07;;;3.38;;
35981;SDS011;22058;0.000;0.000;2024-01-11T14:53:05;16.95;;;3.30;;
35981;SDS011;22058;0.000;0.000;2024-01-11T14:55:31;10.23;;;3.72;;
35981;SDS011;22058;0.000;0.000;2024-01-11T14:57:58;8.55;;;4.50;;
35981;SDS011;22058;0.000;0.000;2024-01-11T15:00:24;7.07;;;3.85;;
35981;SDS011;22058;0.000;0.000;2024-01-11T15:02:50;7.45;;;3.80;;
35981;SDS011;22058;0.000;0.000;2024-01-11T15:05:17;11.15;;;3.20;;